sensor_id;sensor_type;location;lat;lon;timestamp;temperature;humidity
18839;DHT22;9548;56.920;14.804;2022-07-29T00:01:14;11.30;99.90
18839;DHT22;9548;56.920;14.804;2022-07-29T00:03:42;11.30;99.90
18839;DHT22;9548;56.920;14.804;2022-07-29T00:06:09;11.30;99.90
18839;DHT22;9548;56.920;14.804;2022-07-29T00:08:37;11.30;99.90
18839;DHT22;9548;56.920;14.804;2022-07-29T00:11:04;11.20;99.90
18839;DHT22;9548;56.920;14.804;2022-07-29T00:13:31;11.20;99.90
18839;DHT22;9548;56.920;14.804;2022-07-29T00:15:58;11.20;99.90
18839;DHT22;9548;56.920;14.804;2022-07-29T00:18:25;11.20;99.90
18839;DHT22;9548;56.920;14.804;2022-07-29T00:20:53;11.20;99.90
18839;DHT22;9548;56.920;14.804;2022-07-29T00:23:20;11.20;99.90
18839;DHT22;9548;56.920;14.804;2022-07-29T00:25:48;11.10;99.90
18839;DHT22;9548;56.920;14.804;2022-07-29T00:28:15;11.10;99.90
18839;DHT22;9548;56.920;14.804;2022-07-29T00:30:42;11.00;99.90
18839;DHT22;9548;56.920;14.804;2022-07-29T00:33:09;11.00;99.90
18839;DHT22;9548;56.920;14.804;2022-07-29T00:35:36;10.90;99.90
18839;DHT22;9548;56.920;14.804;2022-07-29T00:38:13;10.90;99.90
18839;DHT22;9548;56.920;14.804;2022-07-29T00:40:41;10.90;99.90
18839;DHT22;9548;56.920;14.804;2022-07-29T00:43:10;10.90;99.90
18839;DHT22;9548;56.920;14.804;2022-07-29T00:45:37;10.90;99.90
18839;DHT22;9548;56.920;14.804;2022-07-29T00:48:04;10.80;99.90
18839;DHT22;9548;56.920;14.804;2022-07-29T00:50:32;10.80;99.90
18839;DHT22;9548;56.920;14.804;2022-07-29T00:53:00;10.80;99.90
18839;DHT22;9548;56.920;14.804;2022-07-29T00:55:27;10.70;99.90
18839;DHT22;9548;56.920;14.804;2022-07-29T00:57:55;10.70;99.90
18839;DHT22;9548;56.920;14.804;2022-07-29T01:00:26;10.60;99.90
18839;DHT22;9548;56.920;14.804;2022-07-29T01:02:54;10.60;99.90
18839;DHT22;9548;56.920;14.804;2022-07-29T01:05:22;10.60;99.90
18839;DHT22;9548;56.920;14.804;2022-07-29T01:07:52;10.60;99.90
18839;DHT22;9548;56.920;14.804;2022-07-29T01:10:20;10.50;99.90
18839;DHT22;9548;56.920;14.804;2022-07-29T01:12:50;10.50;99.90
18839;DHT22;9548;56.920;14.804;2022-07-29T01:15:17;10.50;99.90
18839;DHT22;9548;56.920;14.804;2022-07-29T01:17:52;10.50;99.90
18839;DHT22;9548;56.920;14.804;2022-07-29T01:20:25;10.40;99.90
18839;DHT22;9548;56.920;14.804;2022-07-29T01:23:20;10.30;99.90
18839;DHT22;9548;56.920;14.804;2022-07-29T01:26:04;10.30;99.90
18839;DHT22;9548;56.920;14.804;2022-07-29T01:28:49;10.30;99.90
18839;DHT22;9548;56.920;14.804;2022-07-29T01:31:22;10.30;99.90
18839;DHT22;9548;56.920;14.804;2022-07-29T01:33:57;10.40;99.90
18839;DHT22;9548;56.920;14.804;2022-07-29T01:36:31;10.40;99.90
18839;DHT22;9548;56.920;14.804;2022-07-29T01:39:05;10.40;99.90
18839;DHT22;9548;56.920;14.804;2022-07-29T01:41:34;10.30;99.90
18839;DHT22;9548;56.920;14.804;2022-07-29T01:44:12;10.30;99.90
18839;DHT22;9548;56.920;14.804;2022-07-29T01:46:51;10.30;99.90
18839;DHT22;9548;56.920;14.804;2022-07-29T01:49:22;10.20;99.90
18839;DHT22;9548;56.920;14.804;2022-07-29T01:51:54;10.20;99.90
18839;DHT22;9548;56.920;14.804;2022-07-29T01:54:30;10.10;99.90
18839;DHT22;9548;56.920;14.804;2022-07-29T01:57:00;10.10;99.90
18839;DHT22;9548;56.920;14.804;2022-07-29T01:59:29;10.10;99.90
18839;DHT22;9548;56.920;14.804;2022-07-29T02:01:58;10.10;99.90
18839;DHT22;9548;56.920;14.804;2022-07-29T02:04:27;10.10;99.90
18839;DHT22;9548;56.920;14.804;2022-07-29T02:06:58;10.10;99.90
18839;DHT22;9548;56.920;14.804;2022-07-29T02:09:28;10.10;99.90
18839;DHT22;9548;56.920;14.804;2022-07-29T02:11:57;10.00;99.90
18839;DHT22;9548;56.920;14.804;2022-07-29T02:14:31;10.00;99.90
18839;DHT22;9548;56.920;14.804;2022-07-29T02:17:00;9.90;99.90
18839;DHT22;9548;56.920;14.804;2022-07-29T02:19:29;9.90;99.90
18839;DHT22;9548;56.920;14.804;2022-07-29T02:21:58;9.90;99.90
18839;DHT22;9548;56.920;14.804;2022-07-29T02:24:27;9.80;99.90
18839;DHT22;9548;56.920;14.804;2022-07-29T02:26:56;9.80;99.90
18839;DHT22;9548;56.920;14.804;2022-07-29T02:29:28;9.70;99.90
18839;DHT22;9548;56.920;14.804;2022-07-29T02:31:57;9.70;99.90
18839;DHT22;9548;56.920;14.804;2022-07-29T02:34:27;9.70;99.90
18839;DHT22;9548;56.920;14.804;2022-07-29T02:36:55;9.70;99.90
18839;DHT22;9548;56.920;14.804;2022-07-29T02:39:23;9.70;99.90
18839;DHT22;9548;56.920;14.804;2022-07-29T02:41:55;9.70;99.90
18839;DHT22;9548;56.920;14.804;2022-07-29T02:44:24;9.80;99.90
18839;DHT22;9548;56.920;14.804;2022-07-29T02:47:03;9.80;99.90
18839;DHT22;9548;56.920;14.804;2022-07-29T02:49:35;9.80;99.90
18839;DHT22;9548;56.920;14.804;2022-07-29T02:52:04;9.90;99.90
18839;DHT22;9548;56.920;14.804;2022-07-29T02:54:37;10.00;99.90
18839;DHT22;9548;56.920;14.804;2022-07-29T02:57:11;10.00;99.90
18839;DHT22;9548;56.920;14.804;2022-07-29T02:59:42;10.10;99.90
18839;DHT22;9548;56.920;14.804;2022-07-29T03:02:14;10.10;99.90
18839;DHT22;9548;56.920;14.804;2022-07-29T03:04:43;10.00;99.90
18839;DHT22;9548;56.920;14.804;2022-07-29T03:07:12;10.00;99.90
18839;DHT22;9548;56.920;14.804;2022-07-29T03:09:41;9.90;99.90
18839;DHT22;9548;56.920;14.804;2022-07-29T03:12:08;9.90;99.90
18839;DHT22;9548;56.920;14.804;2022-07-29T03:14:37;9.80;99.90
18839;DHT22;9548;56.920;14.804;2022-07-29T03:17:05;9.70;99.90
18839;DHT22;9548;56.920;14.804;2022-07-29T03:19:34;9.70;99.90
18839;DHT22;9548;56.920;14.804;2022-07-29T03:22:01;9.60;99.90
18839;DHT22;9548;56.920;14.804;2022-07-29T03:24:30;9.60;99.90
18839;DHT22;9548;56.920;14.804;2022-07-29T03:26:58;9.70;99.90
18839;DHT22;9548;56.920;14.804;2022-07-29T03:29:25;9.80;99.90
18839;DHT22;9548;56.920;14.804;2022-07-29T03:31:53;9.80;99.90
18839;DHT22;9548;56.920;14.804;2022-07-29T03:34:20;9.80;99.90
18839;DHT22;9548;56.920;14.804;2022-07-29T03:36:49;9.70;99.90
18839;DHT22;9548;56.920;14.804;2022-07-29T03:39:22;9.70;99.90
18839;DHT22;9548;56.920;14.804;2022-07-29T03:41:53;9.70;99.90
18839;DHT22;9548;56.920;14.804;2022-07-29T03:44:21;9.70;99.90
18839;DHT22;9548;56.920;14.804;2022-07-29T03:46:50;9.80;99.90
18839;DHT22;9548;56.920;14.804;2022-07-29T03:49:18;9.80;99.90
18839;DHT22;9548;56.920;14.804;2022-07-29T03:51:48;9.80;99.90
18839;DHT22;9548;56.920;14.804;2022-07-29T03:54:15;9.90;99.90
18839;DHT22;9548;56.920;14.804;2022-07-29T03:56:45;9.90;99.90
18839;DHT22;9548;56.920;14.804;2022-07-29T03:59:13;9.90;99.90
18839;DHT22;9548;56.920;14.804;2022-07-29T04:01:42;9.90;99.90
18839;DHT22;9548;56.920;14.804;2022-07-29T04:04:10;10.00;99.90
18839;DHT22;9548;56.920;14.804;2022-07-29T04:06:38;10.00;99.90
18839;DHT22;9548;56.920;14.804;2022-07-29T04:09:07;10.00;99.90
18839;DHT22;9548;56.920;14.804;2022-07-29T04:11:36;10.00;99.90
18839;DHT22;9548;56.920;14.804;2022-07-29T04:14:03;10.00;99.90
18839;DHT22;9548;56.920;14.804;2022-07-29T04:16:30;10.10;99.90
18839;DHT22;9548;56.920;14.804;2022-07-29T04:18:57;10.20;99.90
18839;DHT22;9548;56.920;14.804;2022-07-29T04:21:25;10.30;99.90
18839;DHT22;9548;56.920;14.804;2022-07-29T04:23:51;10.40;99.90
18839;DHT22;9548;56.920;14.804;2022-07-29T04:26:20;10.50;99.90
18839;DHT22;9548;56.920;14.804;2022-07-29T04:28:47;10.60;99.90
18839;DHT22;9548;56.920;14.804;2022-07-29T04:31:14;10.60;99.90
18839;DHT22;9548;56.920;14.804;2022-07-29T04:33:41;10.70;99.90
18839;DHT22;9548;56.920;14.804;2022-07-29T04:36:08;10.80;99.90
18839;DHT22;9548;56.920;14.804;2022-07-29T04:38:37;10.90;99.90
18839;DHT22;9548;56.920;14.804;2022-07-29T04:41:04;11.10;99.90
18839;DHT22;9548;56.920;14.804;2022-07-29T04:43:34;11.20;99.90
18839;DHT22;9548;56.920;14.804;2022-07-29T04:46:01;11.30;99.90
18839;DHT22;9548;56.920;14.804;2022-07-29T04:48:28;11.40;99.90
18839;DHT22;9548;56.920;14.804;2022-07-29T04:50:55;11.60;99.90
18839;DHT22;9548;56.920;14.804;2022-07-29T04:53:23;11.60;99.90
18839;DHT22;9548;56.920;14.804;2022-07-29T04:55:50;11.70;99.90
18839;DHT22;9548;56.920;14.804;2022-07-29T04:58:17;11.80;99.90
18839;DHT22;9548;56.920;14.804;2022-07-29T05:00:45;11.90;99.90
18839;DHT22;9548;56.920;14.804;2022-07-29T05:03:12;11.90;99.90
18839;DHT22;9548;56.920;14.804;2022-07-29T05:05:39;12.00;99.90
18839;DHT22;9548;56.920;14.804;2022-07-29T05:08:08;12.00;99.90
18839;DHT22;9548;56.920;14.804;2022-07-29T05:10:35;12.10;99.90
18839;DHT22;9548;56.920;14.804;2022-07-29T05:13:04;12.20;99.90
18839;DHT22;9548;56.920;14.804;2022-07-29T05:15:32;12.30;99.90
18839;DHT22;9548;56.920;14.804;2022-07-29T05:18:00;12.30;99.90
18839;DHT22;9548;56.920;14.804;2022-07-29T05:20:28;12.40;99.90
18839;DHT22;9548;56.920;14.804;2022-07-29T05:22:56;12.50;99.90
18839;DHT22;9548;56.920;14.804;2022-07-29T05:25:24;12.60;99.90
18839;DHT22;9548;56.920;14.804;2022-07-29T05:27:52;12.70;99.90
18839;DHT22;9548;56.920;14.804;2022-07-29T05:30:19;12.80;99.90
18839;DHT22;9548;56.920;14.804;2022-07-29T05:32:46;12.90;99.90
18839;DHT22;9548;56.920;14.804;2022-07-29T05:35:15;13.00;99.90
18839;DHT22;9548;56.920;14.804;2022-07-29T05:37:42;13.10;99.90
18839;DHT22;9548;56.920;14.804;2022-07-29T05:40:10;13.10;99.90
18839;DHT22;9548;56.920;14.804;2022-07-29T05:42:37;13.20;99.90
18839;DHT22;9548;56.920;14.804;2022-07-29T05:45:05;13.30;99.90
18839;DHT22;9548;56.920;14.804;2022-07-29T05:47:32;13.40;99.90
18839;DHT22;9548;56.920;14.804;2022-07-29T05:49:59;13.50;99.90
18839;DHT22;9548;56.920;14.804;2022-07-29T05:52:28;13.60;99.90
18839;DHT22;9548;56.920;14.804;2022-07-29T05:54:55;13.80;99.90
18839;DHT22;9548;56.920;14.804;2022-07-29T05:57:23;13.90;99.90
18839;DHT22;9548;56.920;14.804;2022-07-29T05:59:50;13.90;99.90
18839;DHT22;9548;56.920;14.804;2022-07-29T06:02:17;14.00;99.90
18839;DHT22;9548;56.920;14.804;2022-07-29T06:04:44;14.10;99.90
18839;DHT22;9548;56.920;14.804;2022-07-29T06:07:11;14.20;99.90
18839;DHT22;9548;56.920;14.804;2022-07-29T06:09:40;14.30;99.90
18839;DHT22;9548;56.920;14.804;2022-07-29T06:12:07;14.40;99.90
18839;DHT22;9548;56.920;14.804;2022-07-29T06:14:34;14.50;99.90
18839;DHT22;9548;56.920;14.804;2022-07-29T06:17:03;14.60;99.90
18839;DHT22;9548;56.920;14.804;2022-07-29T06:19:33;14.70;99.90
18839;DHT22;9548;56.920;14.804;2022-07-29T06:22:00;14.90;99.90
18839;DHT22;9548;56.920;14.804;2022-07-29T06:24:27;15.00;99.90
18839;DHT22;9548;56.920;14.804;2022-07-29T06:26:56;15.10;99.90
18839;DHT22;9548;56.920;14.804;2022-07-29T06:29:22;15.20;99.90
18839;DHT22;9548;56.920;14.804;2022-07-29T06:31:50;15.40;99.90
18839;DHT22;9548;56.920;14.804;2022-07-29T06:34:17;15.50;99.90
18839;DHT22;9548;56.920;14.804;2022-07-29T06:36:45;15.70;99.90
18839;DHT22;9548;56.920;14.804;2022-07-29T06:39:11;15.80;99.90
18839;DHT22;9548;56.920;14.804;2022-07-29T06:41:38;15.90;99.90
18839;DHT22;9548;56.920;14.804;2022-07-29T06:44:07;16.00;99.90
18839;DHT22;9548;56.920;14.804;2022-07-29T06:46:36;16.10;99.90
18839;DHT22;9548;56.920;14.804;2022-07-29T06:49:03;16.20;99.90
18839;DHT22;9548;56.920;14.804;2022-07-29T06:51:30;16.40;99.90
18839;DHT22;9548;56.920;14.804;2022-07-29T06:53:57;16.50;99.90
18839;DHT22;9548;56.920;14.804;2022-07-29T06:56:24;16.60;99.90
18839;DHT22;9548;56.920;14.804;2022-07-29T06:58:51;16.60;99.90
18839;DHT22;9548;56.920;14.804;2022-07-29T07:01:20;16.70;99.90
18839;DHT22;9548;56.920;14.804;2022-07-29T07:03:47;16.90;99.90
18839;DHT22;9548;56.920;14.804;2022-07-29T07:06:14;17.00;99.90
18839;DHT22;9548;56.920;14.804;2022-07-29T07:08:42;17.10;99.90
18839;DHT22;9548;56.920;14.804;2022-07-29T07:11:09;17.20;99.90
18839;DHT22;9548;56.920;14.804;2022-07-29T07:13:36;17.30;99.90
18839;DHT22;9548;56.920;14.804;2022-07-29T07:16:04;17.30;99.90
18839;DHT22;9548;56.920;14.804;2022-07-29T07:18:33;17.30;99.90
18839;DHT22;9548;56.920;14.804;2022-07-29T07:20:59;17.40;99.90
18839;DHT22;9548;56.920;14.804;2022-07-29T07:23:26;17.40;99.90
18839;DHT22;9548;56.920;14.804;2022-07-29T07:25:53;17.40;99.90
18839;DHT22;9548;56.920;14.804;2022-07-29T07:28:21;17.50;99.90
18839;DHT22;9548;56.920;14.804;2022-07-29T07:30:48;17.60;99.90
18839;DHT22;9548;56.920;14.804;2022-07-29T07:33:15;17.60;99.90
18839;DHT22;9548;56.920;14.804;2022-07-29T07:35:44;17.70;99.90
18839;DHT22;9548;56.920;14.804;2022-07-29T07:38:10;17.70;99.90
18839;DHT22;9548;56.920;14.804;2022-07-29T07:40:37;17.80;99.90
18839;DHT22;9548;56.920;14.804;2022-07-29T07:43:04;17.90;99.90
18839;DHT22;9548;56.920;14.804;2022-07-29T07:45:32;18.00;99.90
18839;DHT22;9548;56.920;14.804;2022-07-29T07:47:59;18.10;99.90
18839;DHT22;9548;56.920;14.804;2022-07-29T07:50:26;18.10;99.90
18839;DHT22;9548;56.920;14.804;2022-07-29T07:52:55;18.20;99.90
18839;DHT22;9548;56.920;14.804;2022-07-29T07:55:24;18.30;99.90
18839;DHT22;9548;56.920;14.804;2022-07-29T07:57:52;18.30;99.90
18839;DHT22;9548;56.920;14.804;2022-07-29T08:00:20;18.40;99.90
18839;DHT22;9548;56.920;14.804;2022-07-29T08:02:47;18.50;99.90
18839;DHT22;9548;56.920;14.804;2022-07-29T08:05:15;18.50;99.90
18839;DHT22;9548;56.920;14.804;2022-07-29T08:07:44;18.60;99.90
18839;DHT22;9548;56.920;14.804;2022-07-29T08:10:13;18.70;99.90
18839;DHT22;9548;56.920;14.804;2022-07-29T08:12:40;18.80;99.90
18839;DHT22;9548;56.920;14.804;2022-07-29T08:15:08;19.00;99.90
18839;DHT22;9548;56.920;14.804;2022-07-29T08:17:35;19.00;99.90
18839;DHT22;9548;56.920;14.804;2022-07-29T08:20:03;19.10;99.90
18839;DHT22;9548;56.920;14.804;2022-07-29T08:22:30;19.20;99.90
18839;DHT22;9548;56.920;14.804;2022-07-29T08:24:57;19.30;99.90
18839;DHT22;9548;56.920;14.804;2022-07-29T08:27:26;19.30;99.90
18839;DHT22;9548;56.920;14.804;2022-07-29T08:29:55;19.40;99.90
18839;DHT22;9548;56.920;14.804;2022-07-29T08:32:22;19.60;99.90
18839;DHT22;9548;56.920;14.804;2022-07-29T08:34:50;19.60;99.90
18839;DHT22;9548;56.920;14.804;2022-07-29T08:37:17;19.70;99.90
18839;DHT22;9548;56.920;14.804;2022-07-29T08:39:44;19.80;99.90
18839;DHT22;9548;56.920;14.804;2022-07-29T08:42:11;19.90;99.90
18839;DHT22;9548;56.920;14.804;2022-07-29T08:44:40;20.00;99.90
18839;DHT22;9548;56.920;14.804;2022-07-29T08:47:07;20.10;99.90
18839;DHT22;9548;56.920;14.804;2022-07-29T08:49:34;20.20;99.90
18839;DHT22;9548;56.920;14.804;2022-07-29T08:52:02;20.30;99.90
18839;DHT22;9548;56.920;14.804;2022-07-29T08:54:30;20.40;99.90
18839;DHT22;9548;56.920;14.804;2022-07-29T08:56:57;20.60;99.90
18839;DHT22;9548;56.920;14.804;2022-07-29T08:59:26;20.70;99.90
18839;DHT22;9548;56.920;14.804;2022-07-29T09:01:57;20.80;99.90
18839;DHT22;9548;56.920;14.804;2022-07-29T09:04:29;21.00;99.90
18839;DHT22;9548;56.920;14.804;2022-07-29T09:06:57;21.10;99.90
18839;DHT22;9548;56.920;14.804;2022-07-29T09:09:27;21.10;99.90
18839;DHT22;9548;56.920;14.804;2022-07-29T09:11:54;21.10;99.90
18839;DHT22;9548;56.920;14.804;2022-07-29T09:14:21;21.00;99.90
18839;DHT22;9548;56.920;14.804;2022-07-29T09:16:52;21.00;99.90
18839;DHT22;9548;56.920;14.804;2022-07-29T09:19:26;21.20;99.90
18839;DHT22;9548;56.920;14.804;2022-07-29T09:21:53;21.50;99.90
18839;DHT22;9548;56.920;14.804;2022-07-29T09:24:23;21.90;99.90
18839;DHT22;9548;56.920;14.804;2022-07-29T09:26:50;22.10;99.90
18839;DHT22;9548;56.920;14.804;2022-07-29T09:29:20;22.40;99.90
18839;DHT22;9548;56.920;14.804;2022-07-29T09:31:49;22.60;99.90
18839;DHT22;9548;56.920;14.804;2022-07-29T09:34:20;22.80;99.90
18839;DHT22;9548;56.920;14.804;2022-07-29T09:36:50;23.10;99.90
18839;DHT22;9548;56.920;14.804;2022-07-29T09:39:27;23.40;99.90
18839;DHT22;9548;56.920;14.804;2022-07-29T09:41:56;23.60;99.90
18839;DHT22;9548;56.920;14.804;2022-07-29T09:44:24;23.40;99.90
18839;DHT22;9548;56.920;14.804;2022-07-29T09:46:54;23.10;99.90
18839;DHT22;9548;56.920;14.804;2022-07-29T09:49:21;22.70;99.90
18839;DHT22;9548;56.920;14.804;2022-07-29T09:51:59;22.60;99.90
18839;DHT22;9548;56.920;14.804;2022-07-29T09:54:27;22.50;99.90
18839;DHT22;9548;56.920;14.804;2022-07-29T09:56:54;22.90;99.90
18839;DHT22;9548;56.920;14.804;2022-07-29T09:59:21;23.40;99.90
18839;DHT22;9548;56.920;14.804;2022-07-29T10:01:52;23.90;99.90
18839;DHT22;9548;56.920;14.804;2022-07-29T10:04:19;24.40;99.90
18839;DHT22;9548;56.920;14.804;2022-07-29T10:06:58;25.20;99.90
18839;DHT22;9548;56.920;14.804;2022-07-29T10:09:26;25.40;99.90
18839;DHT22;9548;56.920;14.804;2022-07-29T10:12:09;26.30;99.90
18839;DHT22;9548;56.920;14.804;2022-07-29T10:14:40;26.80;99.10
18839;DHT22;9548;56.920;14.804;2022-07-29T10:17:09;27.90;96.70
18839;DHT22;9548;56.920;14.804;2022-07-29T10:19:37;28.40;94.30
18839;DHT22;9548;56.920;14.804;2022-07-29T10:22:07;29.40;92.70
18839;DHT22;9548;56.920;14.804;2022-07-29T10:24:34;30.10;90.90
18839;DHT22;9548;56.920;14.804;2022-07-29T10:27:04;31.40;88.30
18839;DHT22;9548;56.920;14.804;2022-07-29T10:29:31;32.20;83.90
18839;DHT22;9548;56.920;14.804;2022-07-29T10:32:15;32.10;81.80
18839;DHT22;9548;56.920;14.804;2022-07-29T10:38:09;33.20;78.10
18839;DHT22;9548;56.920;14.804;2022-07-29T10:40:44;33.40;73.20
18839;DHT22;9548;56.920;14.804;2022-07-29T10:43:32;33.50;71.80
18839;DHT22;9548;56.920;14.804;2022-07-29T10:46:03;34.00;69.30
18839;DHT22;9548;56.920;14.804;2022-07-29T10:48:31;34.20;68.80
18839;DHT22;9548;56.920;14.804;2022-07-29T10:50:59;34.00;70.20
18839;DHT22;9548;56.920;14.804;2022-07-29T10:53:48;34.30;72.20
18839;DHT22;9548;56.920;14.804;2022-07-29T10:56:26;35.10;66.20
18839;DHT22;9548;56.920;14.804;2022-07-29T10:59:24;36.20;63.90
18839;DHT22;9548;56.920;14.804;2022-07-29T11:01:53;37.50;63.10
18839;DHT22;9548;56.920;14.804;2022-07-29T11:07:24;39.20;56.20
18839;DHT22;9548;56.920;14.804;2022-07-29T11:12:56;39.10;57.00
18839;DHT22;9548;56.920;14.804;2022-07-29T11:15:24;38.50;56.20
18839;DHT22;9548;56.920;14.804;2022-07-29T11:18:07;39.10;56.70
18839;DHT22;9548;56.920;14.804;2022-07-29T11:20:37;39.30;55.80
18839;DHT22;9548;56.920;14.804;2022-07-29T11:23:22;38.60;55.30
18839;DHT22;9548;56.920;14.804;2022-07-29T11:26:16;37.20;57.10
18839;DHT22;9548;56.920;14.804;2022-07-29T11:28:57;35.60;57.90
18839;DHT22;9548;56.920;14.804;2022-07-29T11:31:36;34.00;59.30
18839;DHT22;9548;56.920;14.804;2022-07-29T11:34:17;32.60;63.20
18839;DHT22;9548;56.920;14.804;2022-07-29T11:37:22;31.60;64.80
18839;DHT22;9548;56.920;14.804;2022-07-29T11:40:13;30.90;66.30
18839;DHT22;9548;56.920;14.804;2022-07-29T11:42:45;30.10;70.00
18839;DHT22;9548;56.920;14.804;2022-07-29T11:45:16;29.70;68.30
18839;DHT22;9548;56.920;14.804;2022-07-29T11:47:51;29.20;70.50
18839;DHT22;9548;56.920;14.804;2022-07-29T11:50:28;28.90;71.60
18839;DHT22;9548;56.920;14.804;2022-07-29T11:52:56;29.10;70.40
18839;DHT22;9548;56.920;14.804;2022-07-29T11:55:24;29.30;70.60
18839;DHT22;9548;56.920;14.804;2022-07-29T11:57:53;29.00;70.40
18839;DHT22;9548;56.920;14.804;2022-07-29T12:00:23;28.60;70.90
18839;DHT22;9548;56.920;14.804;2022-07-29T12:02:51;28.30;72.40
18839;DHT22;9548;56.920;14.804;2022-07-29T12:05:19;27.80;73.20
18839;DHT22;9548;56.920;14.804;2022-07-29T12:07:47;27.50;74.00
18839;DHT22;9548;56.920;14.804;2022-07-29T12:10:14;27.50;75.50
18839;DHT22;9548;56.920;14.804;2022-07-29T12:12:42;27.50;73.00
18839;DHT22;9548;56.920;14.804;2022-07-29T12:15:16;27.40;72.80
18839;DHT22;9548;56.920;14.804;2022-07-29T12:17:48;27.20;72.60
18839;DHT22;9548;56.920;14.804;2022-07-29T12:20:23;26.90;74.30
18839;DHT22;9548;56.920;14.804;2022-07-29T12:22:50;26.80;76.70
18839;DHT22;9548;56.920;14.804;2022-07-29T12:25:20;26.60;78.20
18839;DHT22;9548;56.920;14.804;2022-07-29T12:27:47;26.30;76.30
18839;DHT22;9548;56.920;14.804;2022-07-29T12:30:34;26.10;78.10
18839;DHT22;9548;56.920;14.804;2022-07-29T12:33:10;26.00;78.70
18839;DHT22;9548;56.920;14.804;2022-07-29T12:35:38;26.00;79.40
18839;DHT22;9548;56.920;14.804;2022-07-29T12:38:06;25.90;79.80
18839;DHT22;9548;56.920;14.804;2022-07-29T12:40:33;25.80;79.60
18839;DHT22;9548;56.920;14.804;2022-07-29T12:43:08;25.50;82.20
18839;DHT22;9548;56.920;14.804;2022-07-29T12:45:36;25.40;83.00
18839;DHT22;9548;56.920;14.804;2022-07-29T12:48:05;25.10;83.80
18839;DHT22;9548;56.920;14.804;2022-07-29T12:50:34;25.10;85.60
18839;DHT22;9548;56.920;14.804;2022-07-29T12:53:12;24.90;83.70
18839;DHT22;9548;56.920;14.804;2022-07-29T12:55:40;24.90;85.30
18839;DHT22;9548;56.920;14.804;2022-07-29T12:58:08;24.80;85.40
18839;DHT22;9548;56.920;14.804;2022-07-29T13:00:35;24.70;86.80
18839;DHT22;9548;56.920;14.804;2022-07-29T13:03:02;24.60;85.30
18839;DHT22;9548;56.920;14.804;2022-07-29T13:05:44;24.40;86.70
18839;DHT22;9548;56.920;14.804;2022-07-29T13:08:12;24.40;88.10
18839;DHT22;9548;56.920;14.804;2022-07-29T13:10:40;24.30;87.80
18839;DHT22;9548;56.920;14.804;2022-07-29T13:13:08;24.20;88.30
18839;DHT22;9548;56.920;14.804;2022-07-29T13:15:36;24.00;89.60
18839;DHT22;9548;56.920;14.804;2022-07-29T13:18:04;23.90;88.30
18839;DHT22;9548;56.920;14.804;2022-07-29T13:20:31;23.80;89.20
18839;DHT22;9548;56.920;14.804;2022-07-29T13:23:00;23.70;90.00
18839;DHT22;9548;56.920;14.804;2022-07-29T13:25:30;23.60;90.70
18839;DHT22;9548;56.920;14.804;2022-07-29T13:27:58;23.40;91.20
18839;DHT22;9548;56.920;14.804;2022-07-29T13:30:25;23.40;91.10
18839;DHT22;9548;56.920;14.804;2022-07-29T13:32:52;23.30;90.40
18839;DHT22;9548;56.920;14.804;2022-07-29T13:35:20;23.20;90.70
18839;DHT22;9548;56.920;14.804;2022-07-29T13:37:47;23.20;91.40
18839;DHT22;9548;56.920;14.804;2022-07-29T13:40:16;23.10;91.50
18839;DHT22;9548;56.920;14.804;2022-07-29T13:42:43;23.10;91.90
18839;DHT22;9548;56.920;14.804;2022-07-29T13:45:10;23.00;92.70
18839;DHT22;9548;56.920;14.804;2022-07-29T13:47:37;23.00;92.80
18839;DHT22;9548;56.920;14.804;2022-07-29T13:50:06;23.00;93.30
18839;DHT22;9548;56.920;14.804;2022-07-29T13:52:36;23.10;93.30
18839;DHT22;9548;56.920;14.804;2022-07-29T13:55:03;23.10;93.90
18839;DHT22;9548;56.920;14.804;2022-07-29T13:57:32;23.00;92.90
18839;DHT22;9548;56.920;14.804;2022-07-29T13:59:59;23.00;93.10
18839;DHT22;9548;56.920;14.804;2022-07-29T14:02:26;22.90;93.30
18839;DHT22;9548;56.920;14.804;2022-07-29T14:04:53;22.90;92.60
18839;DHT22;9548;56.920;14.804;2022-07-29T14:07:20;22.90;93.40
18839;DHT22;9548;56.920;14.804;2022-07-29T14:09:48;22.90;92.90
18839;DHT22;9548;56.920;14.804;2022-07-29T14:12:15;22.90;92.30
18839;DHT22;9548;56.920;14.804;2022-07-29T14:14:44;22.90;92.60
18839;DHT22;9548;56.920;14.804;2022-07-29T14:17:11;22.70;91.40
18839;DHT22;9548;56.920;14.804;2022-07-29T14:19:38;22.70;91.90
18839;DHT22;9548;56.920;14.804;2022-07-29T14:22:06;22.70;91.90
18839;DHT22;9548;56.920;14.804;2022-07-29T14:24:34;22.70;92.00
18839;DHT22;9548;56.920;14.804;2022-07-29T14:27:01;22.80;91.80
18839;DHT22;9548;56.920;14.804;2022-07-29T14:29:28;22.80;91.40
18839;DHT22;9548;56.920;14.804;2022-07-29T14:31:56;22.80;91.30
18839;DHT22;9548;56.920;14.804;2022-07-29T14:34:24;22.70;91.40
18839;DHT22;9548;56.920;14.804;2022-07-29T14:36:51;22.70;91.60
18839;DHT22;9548;56.920;14.804;2022-07-29T14:39:20;22.70;91.50
18839;DHT22;9548;56.920;14.804;2022-07-29T14:41:48;22.60;91.60
18839;DHT22;9548;56.920;14.804;2022-07-29T14:44:16;22.60;91.40
18839;DHT22;9548;56.920;14.804;2022-07-29T14:46:43;22.60;91.60
18839;DHT22;9548;56.920;14.804;2022-07-29T14:49:12;22.60;91.90
18839;DHT22;9548;56.920;14.804;2022-07-29T14:51:39;22.60;91.80
18839;DHT22;9548;56.920;14.804;2022-07-29T14:54:06;22.60;91.30
18839;DHT22;9548;56.920;14.804;2022-07-29T14:56:33;22.60;91.20
18839;DHT22;9548;56.920;14.804;2022-07-29T14:59:00;22.70;92.60
18839;DHT22;9548;56.920;14.804;2022-07-29T15:01:27;22.60;91.80
18839;DHT22;9548;56.920;14.804;2022-07-29T15:03:54;22.60;90.80
18839;DHT22;9548;56.920;14.804;2022-07-29T15:06:22;22.50;90.10
18839;DHT22;9548;56.920;14.804;2022-07-29T15:08:50;22.50;90.40
18839;DHT22;9548;56.920;14.804;2022-07-29T15:11:17;22.50;90.50
18839;DHT22;9548;56.920;14.804;2022-07-29T15:13:44;22.60;90.70
18839;DHT22;9548;56.920;14.804;2022-07-29T15:16:11;22.70;90.50
18839;DHT22;9548;56.920;14.804;2022-07-29T15:18:38;22.80;89.80
18839;DHT22;9548;56.920;14.804;2022-07-29T15:21:05;22.70;90.30
18839;DHT22;9548;56.920;14.804;2022-07-29T15:23:34;22.80;90.50
18839;DHT22;9548;56.920;14.804;2022-07-29T15:26:02;22.90;91.00
18839;DHT22;9548;56.920;14.804;2022-07-29T15:28:29;23.10;90.70
18839;DHT22;9548;56.920;14.804;2022-07-29T15:30:56;23.30;90.00
18839;DHT22;9548;56.920;14.804;2022-07-29T15:33:23;23.40;88.90
18839;DHT22;9548;56.920;14.804;2022-07-29T15:35:51;23.50;87.90
18839;DHT22;9548;56.920;14.804;2022-07-29T15:38:18;23.40;87.90
18839;DHT22;9548;56.920;14.804;2022-07-29T15:40:46;23.40;88.80
18839;DHT22;9548;56.920;14.804;2022-07-29T15:43:13;23.50;89.40
18839;DHT22;9548;56.920;14.804;2022-07-29T15:45:42;23.70;88.50
18839;DHT22;9548;56.920;14.804;2022-07-29T15:48:30;23.90;87.50
18839;DHT22;9548;56.920;14.804;2022-07-29T15:50:58;23.80;86.10
18839;DHT22;9548;56.920;14.804;2022-07-29T15:53:25;23.90;86.70
18839;DHT22;9548;56.920;14.804;2022-07-29T15:55:54;23.90;87.60